createdAt,value
2022-09-20T00:00:24.753Z,20.10
2022-09-20T00:02:51.272Z,20.06
2022-09-20T00:05:17.883Z,20.12
2022-09-20T00:07:45.272Z,20.07
2022-09-20T00:10:12.848Z,20.10
2022-09-20T00:12:39.406Z,20.03
2022-09-20T00:15:06.562Z,20.02
2022-09-20T00:17:33.096Z,20.06
2022-09-20T00:19:59.643Z,19.97
2022-09-20T00:22:27.533Z,19.94
2022-09-20T00:24:54.068Z,20.03
2022-09-20T00:27:20.612Z,19.89
2022-09-20T00:29:47.141Z,19.96
2022-09-20T00:32:13.748Z,19.91
2022-09-20T00:34:58.944Z,19.86
2022-09-20T00:37:25.763Z,19.88
2022-09-20T00:39:52.298Z,19.91
2022-09-20T00:42:18.871Z,19.88
2022-09-20T00:44:55.895Z,19.90
2022-09-20T00:47:29.100Z,19.82
2022-09-20T00:50:20.786Z,19.82
2022-09-20T00:52:48.843Z,19.82
2022-09-20T00:55:16.360Z,19.83
2022-09-20T00:57:43.403Z,19.79
2022-09-20T01:00:11.696Z,19.83
2022-09-20T01:02:41.569Z,19.81
2022-09-20T01:05:09.834Z,19.72
2022-09-20T01:07:36.479Z,19.70
2022-09-20T01:10:03.389Z,19.73
2022-09-20T01:12:34.344Z,19.69
2022-09-20T01:15:03.536Z,19.75
2022-09-20T01:17:32.963Z,19.67
2022-09-20T01:20:06.067Z,19.73
2022-09-20T01:22:49.204Z,19.65
2022-09-20T01:26:00.620Z,19.66
2022-09-20T01:28:28.097Z,19.73
2022-09-20T01:31:06.827Z,19.63
2022-09-20T01:33:36.092Z,19.62
2022-09-20T01:36:05.089Z,19.66
2022-09-20T01:38:50.398Z,19.61
2022-09-20T01:41:46.011Z,19.62
2022-09-20T01:44:34.157Z,19.56
2022-09-20T01:47:48.651Z,19.50
2022-09-20T01:50:17.821Z,19.49
2022-09-20T01:53:27.248Z,19.49
2022-09-20T01:56:24.698Z,19.40
2022-09-20T01:59:25.221Z,19.39
2022-09-20T02:01:54.522Z,19.49
2022-09-20T02:04:54.871Z,19.44
2022-09-20T02:07:33.204Z,19.38
2022-09-20T02:10:08.872Z,19.40
2022-09-20T02:12:44.668Z,19.37
2022-09-20T02:15:14.190Z,19.33
2022-09-20T02:18:02.053Z,19.40
2022-09-20T02:20:46.610Z,19.35
2022-09-20T02:23:38.396Z,19.35
2022-09-20T02:26:13.919Z,19.34
2022-09-20T02:28:54.029Z,19.40
2022-09-20T02:31:44.607Z,19.39
2022-09-20T02:34:27.945Z,19.33
2022-09-20T02:37:02.074Z,19.29
2022-09-20T02:39:36.817Z,19.35
2022-09-20T02:42:11.234Z,19.31
2022-09-20T02:45:00.197Z,19.31
2022-09-20T02:47:31.208Z,19.26
2022-09-20T02:50:38.382Z,19.24
2022-09-20T02:53:18.940Z,19.21
2022-09-20T02:56:00.881Z,19.20
2022-09-20T02:58:41.212Z,19.25
2022-09-20T03:01:51.961Z,19.23
2022-09-20T03:04:29.407Z,19.20
2022-09-20T03:07:04.959Z,19.20
2022-09-20T03:09:40.912Z,19.24
2022-09-20T03:12:48.649Z,19.17
2022-09-20T03:15:30.892Z,19.17
2022-09-20T03:18:08.619Z,19.13
2022-09-20T03:20:59.870Z,19.15
2022-09-20T03:24:00.243Z,19.19
2022-09-20T03:27:08.676Z,19.19
2022-09-20T03:29:59.485Z,19.19
2022-09-20T03:32:33.093Z,19.17
2022-09-20T03:35:26.088Z,19.20
2022-09-20T03:37:55.472Z,19.20
2022-09-20T03:41:09.839Z,19.17
2022-09-20T03:43:56.521Z,19.16
2022-09-20T03:46:23.125Z,19.02
2022-09-20T03:49:16.885Z,19.19
2022-09-20T03:52:00.580Z,19.08
2022-09-20T03:54:29.721Z,19.10
2022-09-20T03:57:18.198Z,19.11
2022-09-20T04:00:04.352Z,19.01
2022-09-20T04:02:56.966Z,19.08
2022-09-20T04:05:46.707Z,19.07
2022-09-20T04:08:35.724Z,19.05
2022-09-20T04:11:31.504Z,19.02
2022-09-20T04:14:11.249Z,19.00
2022-09-20T04:17:01.546Z,18.97
2022-09-20T04:19:45.625Z,19.02
2022-09-20T04:22:12.364Z,18.97
2022-09-20T04:24:54.126Z,19.00
2022-09-20T04:27:38.191Z,19.06
2022-09-20T04:30:18.715Z,18.98
2022-09-20T04:32:53.383Z,19.02
2022-09-20T04:35:53.912Z,19.08
2022-09-20T04:38:21.659Z,18.92
2022-09-20T04:41:16.907Z,18.90
2022-09-20T04:44:11.986Z,18.92
2022-09-20T04:46:56.116Z,18.92
2022-09-20T04:49:37.652Z,18.96
2022-09-20T04:52:34.504Z,18.98
2022-09-20T04:55:35.193Z,19.01
2022-09-20T04:58:10.444Z,18.93
2022-09-20T05:01:19.509Z,18.97
2022-09-20T05:04:18.444Z,18.89
2022-09-20T05:06:59.800Z,18.90
2022-09-20T05:09:41.280Z,18.92
2022-09-20T05:12:35.532Z,18.97
2022-09-20T05:15:02.017Z,18.90
2022-09-20T05:17:34.708Z,18.91
2022-09-20T05:20:24.335Z,18.84
2022-09-20T05:23:24.543Z,18.80
2022-09-20T05:26:16.679Z,18.88
2022-09-20T05:29:04.363Z,18.89
2022-09-20T05:31:48.894Z,18.85
2022-09-20T05:34:24.163Z,18.90
2022-09-20T05:37:12.378Z,18.87
2022-09-20T05:40:14.145Z,18.86
2022-09-20T05:43:16.232Z,18.86
2022-09-20T05:46:07.276Z,18.83
2022-09-20T05:48:52.252Z,18.85
2022-09-20T05:51:35.491Z,18.82
2022-09-20T05:54:22.854Z,18.88
2022-09-20T05:57:06.071Z,18.82
2022-09-20T05:59:45.203Z,18.87
2022-09-20T06:02:37.862Z,18.81
2022-09-20T06:05:17.124Z,18.86
2022-09-20T06:07:43.639Z,18.86
2022-09-20T06:10:19.953Z,18.81
2022-09-20T06:13:24.255Z,18.90
2022-09-20T06:16:01.102Z,18.83
2022-09-20T06:18:46.321Z,18.81
2022-09-20T06:21:30.364Z,18.80
2022-09-20T06:23:58.820Z,18.77
2022-09-20T06:26:29.375Z,18.76
2022-09-20T06:29:02.332Z,18.88
2022-09-20T06:31:29.033Z,18.77
2022-09-20T06:33:59.041Z,18.70
2022-09-20T06:36:50.156Z,18.73
2022-09-20T06:39:54.128Z,18.74
2022-09-20T06:42:23.278Z,18.72
2022-09-20T06:44:52.171Z,18.74
2022-09-20T06:47:18.800Z,18.79
2022-09-20T06:49:47.721Z,18.81
2022-09-20T06:52:15.779Z,18.77
2022-09-20T06:54:46.565Z,18.87
2022-09-20T06:57:15.972Z,18.83
2022-09-20T06:59:42.627Z,18.80
2022-09-20T07:02:09.272Z,18.84
2022-09-20T07:04:35.871Z,18.86
2022-09-20T07:07:07.314Z,18.89
2022-09-20T07:09:35.738Z,18.99
2022-09-20T07:12:02.451Z,18.96
2022-09-20T07:14:29.043Z,19.01
2022-09-20T07:16:55.605Z,18.98
2022-09-20T07:19:23.383Z,19.01
2022-09-20T07:21:50.072Z,19.05
2022-09-20T07:24:16.609Z,19.08
2022-09-20T07:26:57.151Z,19.13
2022-09-20T07:29:23.682Z,19.12
2022-09-20T07:31:50.836Z,19.09
2022-09-20T07:34:20.487Z,19.14
2022-09-20T07:36:51.185Z,19.21
2022-09-20T07:39:18.155Z,19.23
2022-09-20T07:41:48.497Z,19.26
2022-09-20T07:44:21.998Z,19.31
2022-09-20T07:46:52.523Z,19.38
2022-09-20T07:49:19.124Z,19.36
2022-09-20T07:51:45.808Z,19.35
2022-09-20T07:54:12.419Z,19.44
2022-09-20T07:56:39.089Z,19.50
2022-09-20T07:59:06.213Z,19.53
2022-09-20T08:01:32.879Z,19.50
2022-09-20T08:03:59.666Z,19.51
2022-09-20T08:06:26.901Z,19.47
2022-09-20T08:08:53.478Z,19.54
2022-09-20T08:11:27.895Z,19.47
2022-09-20T08:14:11.303Z,19.52
2022-09-20T08:16:46.464Z,19.55
2022-09-20T08:19:21.644Z,19.59
2022-09-20T08:21:49.765Z,19.60
2022-09-20T08:24:17.174Z,19.62
2022-09-20T08:26:43.996Z,19.64
2022-09-20T08:29:11.626Z,19.54
2022-09-20T08:31:40.256Z,19.67
2022-09-20T08:34:09.975Z,19.69
2022-09-20T08:36:41.134Z,19.62
2022-09-20T08:42:05.213Z,19.56
2022-09-20T08:44:35.873Z,19.61
2022-09-20T08:47:12.707Z,19.58
2022-09-20T08:49:40.538Z,19.55
2022-09-20T08:52:10.312Z,19.55
2022-09-20T08:54:37.115Z,19.55
2022-09-20T08:57:09.529Z,19.55
2022-09-20T08:59:36.054Z,19.60
2022-09-20T09:02:02.728Z,19.59
2022-09-20T09:04:35.864Z,19.64
2022-09-20T09:07:03.485Z,19.68
2022-09-20T09:09:30.935Z,19.72
2022-09-20T09:11:58.807Z,19.76
2022-09-20T09:14:49.491Z,19.91
2022-09-20T09:17:18.920Z,19.93
2022-09-20T09:20:10.041Z,19.98
2022-09-20T09:22:40.111Z,20.05
2022-09-20T09:25:16.969Z,20.09
2022-09-20T09:28:06.124Z,20.14
2022-09-20T09:30:47.404Z,20.14
2022-09-20T09:33:20.027Z,20.20
2022-09-20T09:36:05.408Z,20.24
2022-09-20T09:38:37.467Z,20.23
2022-09-20T09:43:35.634Z,20.33
2022-09-20T09:46:23.816Z,20.35
2022-09-20T09:49:19.495Z,20.33
2022-09-20T09:52:16.543Z,20.38
2022-09-20T09:54:46.996Z,20.38
2022-09-20T09:57:33.761Z,20.44
2022-09-20T10:00:22.642Z,20.43
2022-09-20T10:03:06.470Z,20.44
2022-09-20T10:05:35.670Z,20.39
2022-09-20T10:08:39.878Z,20.45
2022-09-20T10:11:12.262Z,20.48
2022-09-20T10:13:40.767Z,20.40
2022-09-20T10:16:20.772Z,20.39
2022-09-20T10:19:22.586Z,20.41
2022-09-20T10:22:11.124Z,20.43
2022-09-20T10:24:51.568Z,20.41
2022-09-20T10:27:32.026Z,20.40
2022-09-20T10:30:12.936Z,20.41
2022-09-20T10:32:46.312Z,20.48
2022-09-20T10:35:28.841Z,20.49
2022-09-20T10:38:01.848Z,20.44
2022-09-20T10:40:53.951Z,20.48
2022-09-20T10:43:51.216Z,20.54
2022-09-20T10:46:32.335Z,20.57
2022-09-20T10:49:18.095Z,20.64
2022-09-20T10:51:48.276Z,20.66
2022-09-20T10:54:38.228Z,20.65
2022-09-20T10:57:12.584Z,20.74
2022-09-20T11:00:08.500Z,20.72
2022-09-20T11:02:44.311Z,20.71
2022-09-20T11:05:16.710Z,20.72
2022-09-20T11:08:14.163Z,20.77
2022-09-20T11:10:57.700Z,20.84
2022-09-20T11:13:38.682Z,20.85
2022-09-20T11:16:16.527Z,20.94
2022-09-20T11:18:48.668Z,20.90
2022-09-20T11:21:20.602Z,20.98
2022-09-20T11:23:55.185Z,20.99
2022-09-20T11:26:31.219Z,21.03
2022-09-20T11:29:22.631Z,21.03
2022-09-20T11:31:50.678Z,21.06
2022-09-20T11:34:17.224Z,21.09
2022-09-20T11:36:54.618Z,21.13
2022-09-20T11:39:33.226Z,21.15
2022-09-20T11:42:01.123Z,21.19
2022-09-20T11:44:27.847Z,21.19
2022-09-20T11:47:52.584Z,21.31
2022-09-20T11:50:33.067Z,21.25
2022-09-20T11:53:17.535Z,21.21
2022-09-20T11:56:03.596Z,21.25
2022-09-20T11:58:31.557Z,21.35
2022-09-20T12:00:59.209Z,21.34
2022-09-20T12:03:37.461Z,21.42
2022-09-20T12:06:08.403Z,21.50
2022-09-20T12:08:40.865Z,21.47
2022-09-20T12:11:10.684Z,21.50
2022-09-20T12:13:39.260Z,21.53
2022-09-20T12:16:16.070Z,21.59
2022-09-20T12:18:54.629Z,21.67
2022-09-20T12:21:21.984Z,21.66
2022-09-20T12:23:57.512Z,21.68
2022-09-20T12:26:26.772Z,21.70
2022-09-20T12:29:01.555Z,21.74
2022-09-20T12:31:32.289Z,21.81
2022-09-20T12:34:10.042Z,21.82
2022-09-20T12:36:42.366Z,21.81
2022-09-20T12:39:11.812Z,21.83
2022-09-20T12:41:59.131Z,21.84
2022-09-20T12:44:48.958Z,21.90
2022-09-20T12:47:18.964Z,21.86
2022-09-20T12:50:04.048Z,21.90
2022-09-20T12:52:57.153Z,21.91
2022-09-20T12:55:33.513Z,21.97
2022-09-20T12:58:08.208Z,21.90
2022-09-20T13:00:42.537Z,21.90
2022-09-20T13:03:15.003Z,21.95
2022-09-20T13:05:46.971Z,22.03
2022-09-20T13:08:20.409Z,22.03
2022-09-20T13:10:50.051Z,22.11
2022-09-20T13:13:34.199Z,22.07
2022-09-20T13:16:06.260Z,22.08
2022-09-20T13:18:34.916Z,22.06
2022-09-20T13:21:06.720Z,22.05
2022-09-20T13:23:43.075Z,21.97
2022-09-20T13:26:13.057Z,21.98
2022-09-20T13:28:47.456Z,22.02
2022-09-20T13:31:34.549Z,22.10
2022-09-20T13:34:21.416Z,22.07
2022-09-20T13:36:51.880Z,21.97
2022-09-20T13:39:38.608Z,22.12
2022-09-20T13:42:12.346Z,22.08
2022-09-20T13:44:38.911Z,22.02
2022-09-20T13:47:22.393Z,22.10
2022-09-20T13:49:49.471Z,22.15
2022-09-20T13:52:34.512Z,22.22
2022-09-20T13:55:20.608Z,22.34
2022-09-20T13:57:48.087Z,22.35
2022-09-20T14:00:15.503Z,22.35
2022-09-20T14:02:42.097Z,22.35
2022-09-20T14:05:15.998Z,22.41
2022-09-20T14:07:45.544Z,22.40
2022-09-20T14:10:31.564Z,22.43
2022-09-20T14:13:03.883Z,22.40
2022-09-20T14:15:35.811Z,22.45
2022-09-20T14:18:04.489Z,22.41
2022-09-20T14:20:31.944Z,22.52
2022-09-20T14:22:59.262Z,22.50
2022-09-20T14:25:27.776Z,22.50
2022-09-20T14:28:06.964Z,22.55
2022-09-20T14:30:36.562Z,22.47
2022-09-20T14:33:05.746Z,22.53
2022-09-20T14:35:32.356Z,22.54
2022-09-20T14:38:10.251Z,22.50
2022-09-20T14:40:45.061Z,22.54
2022-09-20T14:43:28.368Z,22.49
2022-09-20T14:45:57.197Z,22.49
2022-09-20T14:48:23.668Z,22.55
2022-09-20T14:51:09.140Z,22.59
2022-09-20T14:53:38.139Z,22.59
2022-09-20T14:56:04.905Z,22.58
2022-09-20T14:58:31.767Z,22.61
2022-09-20T15:01:05.805Z,22.63
2022-09-20T15:03:33.036Z,22.58
2022-09-20T15:05:59.951Z,22.44
2022-09-20T15:08:26.631Z,22.44
2022-09-20T15:10:53.185Z,22.48
2022-09-20T15:13:19.739Z,22.46
2022-09-20T15:15:50.021Z,22.48
2022-09-20T15:18:26.331Z,22.53
2022-09-20T15:20:54.080Z,22.56
2022-09-20T15:23:21.174Z,22.57
2022-09-20T15:25:51.634Z,22.49
2022-09-20T15:28:20.683Z,22.52
2022-09-20T15:30:49.289Z,22.56
2022-09-20T15:33:16.428Z,22.55
2022-09-20T15:35:44.040Z,22.51
2022-09-20T15:38:11.916Z,22.51
2022-09-20T15:40:40.853Z,22.50
2022-09-20T15:43:09.480Z,22.48
2022-09-20T15:45:36.246Z,22.45
2022-09-20T15:48:03.104Z,22.36
2022-09-20T15:50:29.655Z,22.34
2022-09-20T15:52:59.984Z,22.38
2022-09-20T15:55:26.738Z,22.39
2022-09-20T15:57:53.500Z,22.37
2022-09-20T16:00:20.140Z,22.36
2022-09-20T16:02:50.083Z,22.35
2022-09-20T16:05:16.750Z,22.34
2022-09-20T16:07:43.363Z,22.33
2022-09-20T16:10:09.960Z,22.35
2022-09-20T16:12:36.495Z,22.31
2022-09-20T16:15:03.088Z,22.29
2022-09-20T16:17:49.891Z,22.29
2022-09-20T16:20:16.468Z,22.27
2022-09-20T16:22:42.996Z,22.27
2022-09-20T16:25:09.548Z,22.26
2022-09-20T16:27:36.127Z,22.27
2022-09-20T16:30:03.204Z,22.27
2022-09-20T16:32:29.852Z,22.28
2022-09-20T16:34:57.927Z,22.26
2022-09-20T16:37:24.960Z,22.28
2022-09-20T16:39:51.559Z,22.27
2022-09-20T16:42:18.527Z,22.24
2022-09-20T16:44:45.097Z,22.25
2022-09-20T16:47:16.391Z,22.24
2022-09-20T16:49:42.954Z,22.22
2022-09-20T16:52:09.856Z,22.21
2022-09-20T16:54:37.107Z,22.21
2022-09-20T16:57:05.128Z,22.23
2022-09-20T16:59:31.770Z,22.23
2022-09-20T17:01:58.730Z,22.21
2022-09-20T17:04:25.381Z,22.20
2022-09-20T17:06:52.678Z,22.20
2022-09-20T17:09:19.442Z,22.18
2022-09-20T17:11:49.231Z,22.15
2022-09-20T17:14:17.274Z,22.17
2022-09-20T17:16:47.498Z,22.16
2022-09-20T17:19:16.293Z,22.18
2022-09-20T17:21:45.212Z,22.13
2022-09-20T17:24:11.791Z,22.14
2022-09-20T17:26:40.897Z,22.10
2022-09-20T17:29:10.346Z,22.09
2022-09-20T17:31:39.703Z,22.09
2022-09-20T17:34:09.547Z,22.09
2022-09-20T17:36:41.856Z,22.07
2022-09-20T17:39:12.932Z,22.06
2022-09-20T17:41:41.136Z,22.05
2022-09-20T17:44:09.880Z,22.01
2022-09-20T17:46:41.143Z,21.99
2022-09-20T17:49:19.398Z,21.92
2022-09-20T17:51:53.752Z,21.92
2022-09-20T17:54:21.054Z,21.94
2022-09-20T17:56:50.329Z,21.88
2022-09-20T17:59:17.977Z,21.88
2022-09-20T18:01:46.628Z,21.89
2022-09-20T18:04:13.744Z,21.86
2022-09-20T18:06:42.350Z,21.83
2022-09-20T18:09:10.967Z,21.85
2022-09-20T18:11:39.839Z,21.87
2022-09-20T18:14:08.291Z,21.77
2022-09-20T18:16:35.193Z,21.82
2022-09-20T18:19:01.873Z,21.83
2022-09-20T18:21:31.046Z,21.81
2022-09-20T18:23:57.764Z,21.79
2022-09-20T18:26:26.911Z,21.88
2022-09-20T18:28:56.880Z,21.89
2022-09-20T18:31:36.173Z,21.91
2022-09-20T18:34:07.786Z,21.93
2022-09-20T18:36:36.612Z,21.89
2022-09-20T18:39:03.177Z,21.90
2022-09-20T18:41:33.012Z,21.91
2022-09-20T18:44:00.735Z,21.89
2022-09-20T18:46:30.578Z,21.91
2022-09-20T18:49:00.073Z,21.88
2022-09-20T18:51:28.810Z,21.88
2022-09-20T18:53:56.308Z,21.86
2022-09-20T18:56:23.004Z,21.90
2022-09-20T18:58:51.768Z,21.92
2022-09-20T19:01:26.874Z,21.90
2022-09-20T19:04:28.186Z,21.93
2022-09-20T19:07:35.065Z,21.93
2022-09-20T19:10:13.579Z,21.89
2022-09-20T19:12:53.240Z,21.87
2022-09-20T19:15:40.997Z,21.85
2022-09-20T19:18:25.872Z,21.92
2022-09-20T19:20:55.035Z,21.87
2022-09-20T19:23:41.286Z,21.88
2022-09-20T19:26:18.366Z,21.87
2022-09-20T19:28:45.863Z,21.84
2022-09-20T19:31:22.479Z,21.84
2022-09-20T19:33:49.296Z,21.83
2022-09-20T19:36:16.912Z,21.78
2022-09-20T19:38:58.612Z,21.74
2022-09-20T19:41:32.129Z,21.72
2022-09-20T19:44:18.277Z,21.71
2022-09-20T19:47:06.093Z,21.68
2022-09-20T19:49:51.339Z,21.62
2022-09-20T19:52:18.357Z,21.63
2022-09-20T19:54:47.910Z,21.53
2022-09-20T19:57:22.931Z,21.52
2022-09-20T19:59:51.005Z,21.54
2022-09-20T20:02:18.458Z,21.51
2022-09-20T20:04:45.181Z,21.55
2022-09-20T20:07:33.335Z,21.49
2022-09-20T20:10:15.791Z,21.49
2022-09-20T20:13:34.493Z,21.47
2022-09-20T20:16:14.675Z,21.46
2022-09-20T20:19:14.099Z,21.43
2022-09-20T20:21:49.071Z,21.43
2022-09-20T20:24:25.861Z,21.40
2022-09-20T20:26:52.433Z,21.39
2022-09-20T20:29:19.152Z,21.39
2022-09-20T20:31:45.899Z,21.37
2022-09-20T20:34:16.144Z,21.35
2022-09-20T20:36:44.022Z,21.29
2022-09-20T20:39:11.464Z,21.34
2022-09-20T20:41:39.271Z,21.30
2022-09-20T20:44:06.292Z,21.31
2022-09-20T20:46:34.915Z,21.28
2022-09-20T20:49:03.033Z,21.30
2022-09-20T20:51:33.339Z,21.31
2022-09-20T20:53:59.983Z,21.18
2022-09-20T20:56:28.763Z,21.21
2022-09-20T20:58:57.801Z,21.27
2022-09-20T21:01:46.368Z,21.20
2022-09-20T21:04:13.525Z,21.21
2022-09-20T21:06:41.590Z,21.19
2022-09-20T21:09:11.519Z,21.19
2022-09-20T21:11:43.771Z,21.15
2022-09-20T21:14:11.943Z,21.13
2022-09-20T21:16:42.509Z,21.16
2022-09-20T21:19:10.491Z,21.07
2022-09-20T21:21:38.805Z,21.08
2022-09-20T21:24:09.380Z,21.08
2022-09-20T21:26:37.354Z,21.08
2022-09-20T21:29:06.384Z,21.01
2022-09-20T21:31:35.409Z,21.06
2022-09-20T21:34:05.364Z,20.96
2022-09-20T21:36:31.945Z,20.96
2022-09-20T21:38:58.480Z,21.02
2022-09-20T21:41:30.088Z,20.95
2022-09-20T21:44:02.219Z,20.97
2022-09-20T21:46:31.029Z,20.96
2022-09-20T21:48:59.778Z,20.93
2022-09-20T21:51:31.133Z,20.89
2022-09-20T21:53:59.507Z,20.89
2022-09-20T21:56:27.736Z,20.81
2022-09-20T21:58:54.472Z,20.88
2022-09-20T22:01:23.496Z,20.90
2022-09-20T22:03:59.084Z,20.86
2022-09-20T22:06:36.438Z,20.76
2022-09-20T22:09:14.665Z,20.79
2022-09-20T22:11:43.616Z,20.79
2022-09-20T22:14:11.111Z,20.81
2022-09-20T22:16:41.588Z,20.77
2022-09-20T22:19:10.088Z,20.73
2022-09-20T22:21:39.409Z,20.75
2022-09-20T22:24:11.659Z,20.72
2022-09-20T22:26:41.028Z,20.73
2022-09-20T22:29:10.702Z,20.72
2022-09-20T22:31:41.485Z,20.70
2022-09-20T22:34:08.102Z,20.67
2022-09-20T22:36:37.812Z,20.66
2022-09-20T22:39:09.816Z,20.66
2022-09-20T22:41:41.082Z,20.64
2022-09-20T22:44:07.683Z,20.63
2022-09-20T22:46:34.889Z,20.63
2022-09-20T22:49:01.882Z,20.57
2022-09-20T22:51:36.288Z,20.60
2022-09-20T22:54:11.263Z,20.65
2022-09-20T22:56:39.410Z,20.62
2022-09-20T22:59:11.224Z,20.64
2022-09-20T23:01:45.856Z,20.60
2022-09-20T23:04:17.588Z,20.57
2022-09-20T23:06:49.379Z,20.56
2022-09-20T23:09:17.777Z,20.55
2022-09-20T23:11:44.874Z,20.52
2022-09-20T23:14:15.371Z,20.60
2022-09-20T23:16:42.577Z,20.52
2022-09-20T23:19:10.049Z,20.57
2022-09-20T23:21:38.283Z,20.56
2022-09-20T23:24:06.943Z,20.56
2022-09-20T23:26:35.066Z,20.57
2022-09-20T23:29:03.875Z,20.54
2022-09-20T23:31:33.735Z,20.50
2022-09-20T23:34:01.593Z,20.58
2022-09-20T23:36:30.134Z,20.45
2022-09-20T23:38:57.100Z,20.49
2022-09-20T23:41:27.799Z,20.53
2022-09-20T23:43:54.630Z,20.47
2022-09-20T23:46:22.734Z,20.50
2022-09-20T23:48:50.684Z,20.47
2022-09-20T23:51:22.573Z,20.46
2022-09-20T23:53:52.642Z,20.52
2022-09-20T23:56:20.333Z,20.45
2022-09-20T23:58:48.150Z,20.43
